Time;durP1;ratioP1;P1;durP2;ratioP2;P2;SDS_P1;SDS_P2;PMS_P1;PMS_P2;Temp;Humidity;BMP_temperature;BMP_pressure;BME280_temperature;BME280_humidity;BME280_pressure;Samples;Min_cycle;Max_cycle;Signal;HPM_P1;HPM_P2
2023/09/30 00:02:05;;;;;;;13.23;8.50;;;28.00;99.90;;;;;;4974267;28;20179;-68
2023/09/30 00:04:33;;;;;;;12.53;8.50;;;28.10;99.90;;;;;;4974925;28;20283;-69
2023/09/30 00:07:01;;;;;;;10.60;8.33;;;28.70;99.90;;;;;;4982719;28;20188;-67
2023/09/30 00:09:28;;;;;;;10.23;7.53;;;28.10;99.90;;;;;;4987456;28;20304;-69
2023/09/30 00:11:56;;;;;;;11.50;8.00;;;28.30;99.90;;;;;;4993513;28;20229;-67
2023/09/30 00:14:24;;;;;;;10.83;8.60;;;29.10;99.90;;;;;;4976859;28;20183;-67
2023/09/30 00:16:51;;;;;;;10.00;7.90;;;29.20;99.90;;;;;;4973986;28;20187;-67
2023/09/30 00:22:42;;;;;;;11.90;8.57;;;27.90;99.90;;;;;;4982660;28;20687;-67
2023/09/30 00:25:10;;;;;;;12.00;8.67;;;28.60;99.90;;;;;;4973649;28;20357;-67
2023/09/30 00:27:38;;;;;;;10.77;7.60;;;28.70;99.90;;;;;;4982834;28;20187;-67
2023/09/30 00:33:27;;;;;;;11.13;8.50;;;29.60;99.90;;;;;;4983617;28;20187;-68
2023/09/30 00:35:55;;;;;;;11.77;8.80;;;29.90;99.90;;;;;;4990209;28;20548;-68
2023/09/30 00:38:23;;;;;;;10.97;8.50;;;29.60;99.90;;;;;;4987543;28;20645;-69
2023/09/30 00:40:51;;;;;;;12.05;8.80;;;29.90;99.90;;;;;;4992216;28;20179;-68
2023/09/30 00:43:22;;;;;;;23.13;9.65;;;30.30;99.90;;;;;;4987777;28;20193;-68
2023/09/30 00:45:55;;;;;;;30.00;10.85;;;30.20;99.90;;;;;;4986036;28;20232;-68
2023/09/30 00:48:23;;;;;;;16.02;8.60;;;30.40;99.90;;;;;;4995751;28;20175;-69
2023/09/30 00:50:50;;;;;;;10.98;8.45;;;30.60;99.90;;;;;;4996308;28;20210;-69
2023/09/30 00:53:18;;;;;;;11.02;7.97;;;31.00;99.90;;;;;;4996460;28;20171;-68
2023/09/30 00:55:46;;;;;;;9.93;7.60;;;30.70;99.90;;;;;;4996432;28;20270;-69
2023/09/30 00:58:14;;;;;;;10.07;7.38;;;30.30;99.90;;;;;;4996467;28;20175;-68
2023/09/30 01:00:42;;;;;;;9.13;7.47;;;30.00;99.90;;;;;;4996381;28;20181;-69
2023/09/30 01:03:10;;;;;;;12.43;8.57;;;30.40;99.90;;;;;;4996237;28;20185;-68
2023/09/30 01:09:00;;;;;;;12.45;7.80;;;30.90;99.90;;;;;;4995358;28;20293;-69
2023/09/30 01:11:27;;;;;;;11.82;7.80;;;30.90;99.90;;;;;;4995909;28;20208;-69
2023/09/30 01:13:55;;;;;;;31.92;9.25;;;31.00;99.90;;;;;;4996064;28;20258;-69
2023/09/30 01:16:54;;;;;;;14.02;8.25;;;31.50;99.90;;;;;;4995721;28;20704;-69
2023/09/30 01:19:25;;;;;;;12.20;7.78;;;32.00;99.90;;;;;;4995830;28;20325;-69
2023/09/30 01:22:05;;;;;;;10.05;7.65;;;32.30;99.90;;;;;;4978263;28;20645;-70
2023/09/30 01:24:40;;;;;;;12.52;7.88;;;32.70;99.90;;;;;;4995939;28;20587;-68
2023/09/30 01:27:09;;;;;;;10.25;8.07;;;32.70;99.90;;;;;;4995715;28;20207;-69
2023/09/30 01:29:38;;;;;;;9.13;7.35;;;32.50;99.90;;;;;;4995832;28;20547;-69
2023/09/30 01:32:09;;;;;;;8.73;7.47;;;32.70;99.90;;;;;;4995884;28;20636;-68
2023/09/30 01:34:37;;;;;;;11.70;8.20;;;33.20;99.90;;;;;;4996040;28;20633;-69
2023/09/30 01:37:06;;;;;;;8.48;6.63;;;33.40;99.90;;;;;;4995565;28;20174;-68
2023/09/30 01:39:33;;;;;;;9.20;7.38;;;33.10;98.20;;;;;;4995650;28;20179;-69
2023/09/30 01:42:01;;;;;;;11.63;7.72;;;32.80;99.90;;;;;;4995551;28;20229;-69
2023/09/30 01:44:29;;;;;;;8.95;6.82;;;32.30;99.90;;;;;;4995057;28;20255;-68
2023/09/30 01:46:56;;;;;;;8.13;6.68;;;32.50;99.60;;;;;;4995358;28;20536;-69
2023/09/30 01:49:26;;;;;;;12.52;7.28;;;32.00;99.90;;;;;;4995404;28;20216;-69
2023/09/30 01:51:53;;;;;;;13.38;7.43;;;31.60;99.90;;;;;;4995331;28;20182;-69
2023/09/30 01:57:43;;;;;;;7.78;6.32;;;32.10;98.80;;;;;;4995141;28;20707;-68
2023/09/30 02:00:12;;;;;;;8.07;6.15;;;32.50;99.90;;;;;;4995379;28;20636;-68
2023/09/30 02:02:41;;;;;;;8.98;6.40;;;32.80;97.50;;;;;;4995382;28;20633;-68
2023/09/30 02:08:13;;;;;;;7.22;6.03;;;33.10;97.90;;;;;;4994284;28;20213;-69
2023/09/30 02:10:41;;;;;;;6.50;5.70;;;32.90;95.40;;;;;;4994792;28;20226;-68
2023/09/30 02:13:09;;;;;;;5.53;4.90;;;32.70;96.80;;;;;;4995326;28;20175;-68
2023/09/30 02:15:41;;;;;;;8.20;5.47;;;32.80;91.60;;;;;;4994960;28;20528;-70
2023/09/30 02:18:09;;;;;;;6.15;5.18;;;31.60;94.00;;;;;;4994706;28;20186;-70
2023/09/30 02:20:40;;;;;;;6.03;4.65;;;31.80;92.00;;;;;;4995058;28;20210;-70
2023/09/30 02:23:13;;;;;;;5.68;5.05;;;32.20;90.90;;;;;;4994858;28;20175;-69
2023/09/30 02:25:41;;;;;;;6.72;5.20;;;32.50;91.60;;;;;;4995060;28;20226;-69
2023/09/30 02:28:10;;;;;;;6.53;4.80;;;32.60;90.00;;;;;;4994775;28;20174;-69
2023/09/30 02:30:38;;;;;;;6.35;4.82;;;33.10;84.90;;;;;;4994566;28;20222;-69
2023/09/30 02:33:07;;;;;;;6.70;4.90;;;32.80;81.50;;;;;;4977184;28;20186;-69
2023/09/30 02:35:34;;;;;;;7.53;5.32;;;32.70;84.70;;;;;;4977206;28;20187;-69
2023/09/30 02:38:02;;;;;;;6.72;5.20;;;32.70;78.90;;;;;;4994681;28;20182;-70
2023/09/30 02:40:30;;;;;;;7.00;4.82;;;32.70;77.90;;;;;;4994630;28;20175;-67
2023/09/30 02:42:58;;;;;;;7.53;4.38;;;32.90;73.30;;;;;;4994329;28;20170;-68
2023/09/30 02:45:25;;;;;;;7.25;4.85;;;32.90;64.90;;;;;;4994367;28;20189;-68
2023/09/30 02:47:53;;;;;;;7.85;5.10;;;33.20;67.80;;;;;;4994519;28;20225;-68
2023/09/30 02:50:21;;;;;;;10.25;4.63;;;33.40;66.80;;;;;;4994233;28;20245;-69
2023/09/30 02:52:49;;;;;;;6.65;4.38;;;33.40;62.10;;;;;;4994459;28;20175;-69
2023/09/30 02:55:17;;;;;;;8.35;4.30;;;32.70;55.40;;;;;;4992999;28;20186;-68
2023/09/30 02:57:46;;;;;;;7.00;4.40;;;33.30;60.90;;;;;;4994242;28;20171;-69
2023/09/30 03:00:25;;;;;;;7.78;4.80;;;33.70;56.90;;;;;;4994006;28;20197;-68
2023/09/30 03:02:57;;;;;;;6.68;4.00;;;33.70;56.80;;;;;;4994325;28;20229;-68
2023/09/30 03:05:27;;;;;;;27.13;5.07;;;33.30;53.60;;;;;;4994072;28;20213;-68
2023/09/30 03:07:55;;;;;;;7.05;4.07;;;32.80;47.60;;;;;;4994577;28;20167;-68
2023/09/30 03:13:50;;;;;;;8.13;3.90;;;32.80;46.10;;;;;;4993790;28;20651;-68
2023/09/30 03:16:19;;;;;;;11.00;4.07;;;33.10;41.60;;;;;;4994000;28;20175;-68
2023/09/30 03:18:49;;;;;;;4.70;3.50;;;33.00;39.70;;;;;;4976343;28;20186;-68
2023/09/30 03:21:16;;;;;;;3.92;3.33;;;32.80;35.80;;;;;;4993693;28;20253;-68
2023/09/30 03:23:45;;;;;;;5.00;3.10;;;33.20;38.70;;;;;;4993612;28;20181;-68
2023/09/30 03:26:13;;;;;;;4.65;3.83;;;33.10;36.70;;;;;;4993763;28;20171;-67
2023/09/30 03:28:41;;;;;;;7.60;3.63;;;33.40;34.50;;;;;;4993860;28;20679;-68
2023/09/30 03:31:09;;;;;;;8.13;4.18;;;33.60;35.30;;;;;;4993722;28;20183;-69
2023/09/30 03:33:37;;;;;;;4.45;3.83;;;33.90;35.80;;;;;;4993565;28;20238;-69
2023/09/30 03:36:09;;;;;;;6.30;4.00;;;34.10;34.50;;;;;;4993596;28;20178;-68
2023/09/30 03:38:36;;;;;;;4.35;3.95;;;34.30;33.80;;;;;;4993719;28;20178;-68
2023/09/30 03:41:07;;;;;;;5.07;3.90;;;34.20;30.00;;;;;;4993548;28;20178;-69
2023/09/30 03:43:40;;;;;;;8.68;3.33;;;33.70;30.30;;;;;;4993631;28;20177;-70
2023/09/30 03:46:09;;;;;;;5.53;3.58;;;33.60;28.10;;;;;;4993427;28;20551;-68
2023/09/30 03:48:39;;;;;;;6.25;3.70;;;33.10;28.10;;;;;;4993578;28;20179;-69
2023/09/30 03:51:16;;;;;;;14.63;4.25;;;32.50;28.70;;;;;;4993305;28;20198;-69
2023/09/30 03:53:44;;;;;;;4.57;3.53;;;32.40;29.90;;;;;;4993681;28;20658;-69
2023/09/30 03:59:34;;;;;;;6.30;3.47;;;32.60;27.70;;;;;;4993148;28;20181;-68
2023/09/30 04:02:01;;;;;;;;;;;33.00;32.60;;;;;;4993644;28;20170;-69
2023/09/30 04:07:32;;;;;;;;;;;33.30;24.80;;;;;;4996525;28;20254;-68
2023/09/30 04:10:01;;;;;;;;;;;33.20;24.60;;;;;;4997808;28;20656;-69
2023/09/30 04:15:31;;;;;;;;;;;33.20;27.40;;;;;;4996708;28;20209;-69
2023/09/30 04:17:57;;;;;;;;;;;33.10;25.90;;;;;;4997617;28;20638;-70
2023/09/30 04:20:26;;;;;;;;;;;32.70;24.30;;;;;;4997482;28;20167;-69
2023/09/30 04:22:57;;;;;;;;;;;32.70;23.50;;;;;;4996902;28;20174;-69
2023/09/30 04:25:27;;;;;;;;;;;32.70;22.70;;;;;;4997150;28;20305;-69
2023/09/30 04:27:54;;;;;;;;;;;32.60;22.80;;;;;;4979739;28;20196;-69
2023/09/30 04:30:22;;;;;;;;;;;32.70;21.70;;;;;;4996814;28;20202;-68
2023/09/30 04:32:49;;;;;;;;;;;33.00;22.20;;;;;;4996890;28;20558;-69
2023/09/30 04:35:16;;;;;;;;;;;33.00;21.20;;;;;;4996892;28;20191;-69
2023/09/30 04:37:45;;;;;;;;;;;33.00;26.00;;;;;;4996906;28;20183;-69
2023/09/30 04:40:15;;;;;;;;;;;33.20;23.20;;;;;;4997061;28;20239;-70
2023/09/30 04:42:44;;;;;;;;;;;33.20;21.50;;;;;;4979542;28;20243;-69
2023/09/30 04:45:12;;;;;;;;;;;32.90;19.20;;;;;;4996761;28;20209;-70
2023/09/30 04:47:39;;;;;;;;;;;32.80;17.00;;;;;;4996849;28;20219;-69
2023/09/30 04:50:07;;;;;;;;;;;32.80;18.00;;;;;;4997013;28;20653;-69
2023/09/30 04:52:38;;;;;;;;;;;32.70;18.90;;;;;;4996606;28;20180;-68
2023/09/30 04:55:05;;;;;;;;;;;32.90;17.60;;;;;;4996490;28;20171;-70
2023/09/30 04:57:32;;;;;;;;;;;33.00;20.40;;;;;;4996778;28;20695;-69
2023/09/30 04:59:59;;;;;;;;;;;33.00;17.10;;;;;;4996557;28;20176;-69
2023/09/30 05:02:28;;;;;;;;;;;33.10;16.10;;;;;;4996423;28;20633;-69
2023/09/30 05:07:58;;;;;;;;;;;33.20;19.20;;;;;;4996077;28;20254;-69
2023/09/30 05:10:25;;;;;;;;;;;33.20;20.00;;;;;;4996479;28;20235;-70
2023/09/30 05:12:54;;;;;;;;;;;33.00;20.80;;;;;;4996471;28;20170;-70
2023/09/30 05:15:21;;;;;;;;;;;32.90;20.50;;;;;;4996440;28;20194;-71
2023/09/30 05:17:49;;;;;;;;;;;32.70;17.90;;;;;;4995244;28;20171;-69
2023/09/30 05:20:19;;;;;;;;;;;32.60;17.30;;;;;;4996487;28;20171;-71
2023/09/30 05:22:46;;;;;;;;;;;32.70;21.50;;;;;;4995950;28;20173;-69
2023/09/30 05:25:19;;;;;;;8.77;4.97;;;32.40;48.60;;;;;;4995668;28;20660;-70
2023/09/30 05:27:50;;;;;;;9.23;5.03;;;32.10;61.10;;;;;;4996091;28;20179;-71
2023/09/30 05:30:19;;;;;;;;;;;31.90;74.00;;;;;;4995730;28;20226;-69
2023/09/30 05:32:46;;;;;;;;;;;31.60;82.20;;;;;;4995914;28;20189;-69
2023/09/30 05:35:13;;;;;;;;;;;31.40;83.60;;;;;;4994693;28;20207;-69
2023/09/30 05:37:40;;;;;;;;;;;31.20;84.50;;;;;;4995603;28;20572;-70
2023/09/30 05:40:16;;;;;;;;;;;31.00;90.50;;;;;;4995580;28;20183;-69
2023/09/30 05:42:44;;;;;;;;;;;31.00;86.80;;;;;;4995399;28;20653;-69
2023/09/30 05:45:15;;;;;;;;;;;31.10;87.50;;;;;;4995433;28;20662;-69
2023/09/30 05:47:43;;;;;;;;;;;31.10;90.60;;;;;;4995142;28;20193;-70
2023/09/30 05:50:14;;;;;;;;;;;30.90;91.40;;;;;;4995100;28;20216;-69
2023/09/30 05:52:41;;;;;;;;;;;31.00;92.40;;;;;;4995415;28;20628;-69
2023/09/30 05:55:08;;;;;;;;;;;30.80;93.80;;;;;;4977484;28;20176;-70
2023/09/30 05:57:36;;;;;;;;;;;30.80;94.70;;;;;;4994850;28;20648;-70
2023/09/30 06:00:11;;;;;;;;;;;30.80;94.20;;;;;;4995004;28;20189;-71
2023/09/30 06:02:39;;;;;;;;;;;30.70;93.60;;;;;;4995253;28;20246;-70
2023/09/30 06:05:06;;;;;;;;;;;30.70;96.70;;;;;;4994605;28;20637;-69
2023/09/30 06:07:33;;;;;;;;;;;30.50;96.80;;;;;;4995081;28;20174;-71
2023/09/30 06:10:03;;;;;;;;;;;30.50;97.60;;;;;;4993890;28;20235;-70
2023/09/30 06:12:30;;;;;;;;;;;30.50;98.60;;;;;;4994465;28;20155;-71
2023/09/30 06:14:58;;;;;;;;;;;30.30;99.90;;;;;;4977360;28;20221;-70
2023/09/30 06:17:26;;;;;;;;;;;30.20;99.90;;;;;;4993336;28;20202;-72
2023/09/30 06:19:52;;;;;;;;;;;30.20;99.90;;;;;;4992510;28;20261;-70
2023/09/30 06:22:19;;;;;;;;;;;30.00;99.90;;;;;;4993999;28;20239;-69
2023/09/30 06:24:48;;;;;;;;;;;30.00;99.90;;;;;;4994162;28;20210;-70
2023/09/30 06:27:15;;;;;;;;;;;30.00;99.90;;;;;;4977652;28;20161;-71
2023/09/30 06:29:48;;;;;;;;;;;30.10;99.90;;;;;;4994008;28;20246;-69
2023/09/30 06:32:15;;;;;;;;;;;29.90;99.90;;;;;;4994802;28;20197;-70
2023/09/30 06:34:42;;;;;;;;;;;29.90;99.90;;;;;;4994014;28;20167;-70
2023/09/30 06:37:09;;;;;;;;;;;29.90;99.90;;;;;;4994523;28;20310;-70
2023/09/30 06:39:36;;;;;;;;;;;29.70;99.90;;;;;;4994603;28;20179;-71
2023/09/30 06:42:03;;;;;;;;;;;29.70;99.90;;;;;;4994327;28;20184;-70
2023/09/30 06:44:31;;;;;;;;;;;29.50;99.90;;;;;;4994361;28;20166;-71
2023/09/30 06:46:58;;;;;;;;;;;29.40;99.90;;;;;;4993633;28;20553;-70
2023/09/30 06:49:25;;;;;;;;;;;29.30;99.90;;;;;;4993962;28;20181;-70
2023/09/30 06:51:52;;;;;;;;;;;29.20;99.90;;;;;;4993654;28;20241;-70
2023/09/30 06:54:18;;;;;;;;;;;29.10;99.90;;;;;;4993571;28;20175;-70
2023/09/30 06:56:45;;;;;;;;;;;28.90;99.90;;;;;;4993539;28;20183;-69
2023/09/30 06:59:12;;;;;;;;;;;28.60;99.90;;;;;;4994100;28;20638;-69
2023/09/30 07:01:39;;;;;;;;;;;28.30;99.90;;;;;;4975556;28;20169;-70
2023/09/30 07:04:06;;;;;;;;;;;28.20;99.90;;;;;;4993296;28;20170;-69
2023/09/30 07:06:33;;;;;;;;;;;28.00;99.90;;;;;;4993198;28;20180;-70
2023/09/30 07:09:00;;;;;;;;;;;27.80;99.90;;;;;;4992943;28;20232;-70
2023/09/30 07:11:29;;;;;;;;;;;27.60;99.90;;;;;;4993514;28;20263;-69
2023/09/30 07:13:56;;;;;;;;;;;27.40;99.90;;;;;;4993398;28;20188;-70
2023/09/30 07:16:23;;;;;;;;;;;27.30;99.90;;;;;;4975754;28;20179;-70
2023/09/30 07:18:50;;;;;;;;;;;27.20;99.90;;;;;;4975703;28;20672;-71
2023/09/30 07:21:17;;;;;;;;;;;27.10;99.90;;;;;;4993233;28;20171;-71
2023/09/30 07:23:44;;;;;;;;;;;27.00;99.90;;;;;;4993234;28;20196;-70
2023/09/30 07:26:11;;;;;;;;;;;26.90;99.90;;;;;;4993267;28;20178;-70
2023/09/30 07:28:40;;;;;;;;;;;26.90;99.90;;;;;;4992998;28;20164;-70
2023/09/30 07:31:08;;;;;;;;;;;26.90;99.90;;;;;;4992842;28;20221;-71
2023/09/30 07:33:34;;;;;;;;;;;26.90;99.90;;;;;;4992881;28;20143;-70
2023/09/30 07:36:01;;;;;;;;;;;26.70;99.90;;;;;;4992842;28;20268;-69
2023/09/30 07:38:28;;;;;;;;;;;26.60;99.90;;;;;;4993813;28;20653;-72
2023/09/30 07:40:55;;;;;;;;;;;26.60;99.90;;;;;;4991947;28;20159;-72
2023/09/30 07:43:22;;;;;;;;;;;26.60;99.90;;;;;;4992641;28;20150;-70
2023/09/30 07:45:49;;;;;;;;;;;26.50;99.90;;;;;;4993024;28;20613;-71
2023/09/30 07:48:16;;;;;;;;;;;26.40;99.90;;;;;;4993016;28;20179;-71
2023/09/30 07:50:43;;;;;;;;;;;26.30;99.90;;;;;;4975434;28;20282;-70
2023/09/30 07:53:12;;;;;;;;;;;26.30;99.90;;;;;;4992683;28;20153;-70
2023/09/30 07:55:39;;;;;;;;;;;26.20;99.90;;;;;;4975304;28;20605;-69
2023/09/30 07:58:07;;;;;;;;;;;26.10;99.90;;;;;;4992934;28;20268;-70
2023/09/30 08:00:34;;;;;;;;;;;26.00;99.90;;;;;;4993058;28;20596;-69
2023/09/30 08:03:01;;;;;;;;;;;25.90;99.90;;;;;;4975376;28;20567;-70
2023/09/30 08:05:28;;;;;;;;;;;25.80;99.90;;;;;;4992930;28;20156;-70
2023/09/30 08:07:56;;;;;;;;;;;25.70;99.90;;;;;;4993200;28;20158;-70
2023/09/30 08:10:23;;;;;;;;;;;25.70;99.90;;;;;;4992949;28;20658;-70
2023/09/30 08:12:50;;;;;;;;;;;25.60;99.90;;;;;;4992484;28;20169;-70
2023/09/30 08:15:17;;;;;;;;;;;25.50;99.90;;;;;;4992463;28;20614;-71
2023/09/30 08:17:43;;;;;;;;;;;25.40;99.90;;;;;;4992874;28;20489;-70
2023/09/30 08:20:11;;;;;;;;;;;25.20;99.90;;;;;;4992432;28;20656;-70
2023/09/30 08:22:37;;;;;;;;;;;25.10;99.90;;;;;;4992429;28;20169;-70
2023/09/30 08:25:06;;;;;;;;;;;25.00;99.90;;;;;;4974978;28;20199;-70
2023/09/30 08:27:32;;;;;;;;;;;24.80;99.90;;;;;;4992515;28;20161;-70
2023/09/30 08:29:59;;;;;;;;;;;24.80;99.90;;;;;;4992625;28;20251;-71
2023/09/30 08:32:26;;;;;;;;;;;24.70;99.90;;;;;;4992576;28;20177;-71
2023/09/30 08:34:52;;;;;;;;;;;24.60;99.90;;;;;;4992518;28;20259;-70
2023/09/30 08:37:21;;;;;;;;;;;24.50;99.90;;;;;;4992010;28;20165;-70
2023/09/30 08:39:47;;;;;;;;;;;24.50;99.90;;;;;;4992751;28;20246;-71
2023/09/30 08:42:14;;;;;;;;;;;24.50;99.90;;;;;;4992317;28;20188;-70
2023/09/30 08:44:41;;;;;;;;;;;24.40;99.90;;;;;;4992528;28;20152;-71
2023/09/30 08:47:09;;;;;;;;;;;24.30;99.90;;;;;;4992367;28;20139;-70
2023/09/30 08:49:41;;;;;;;;;;;24.20;99.90;;;;;;4992079;28;20163;-72
2023/09/30 08:52:10;;;;;;;;;;;24.10;99.90;;;;;;4993652;28;20169;-71
2023/09/30 08:54:38;;;;;;;;;;;24.00;99.90;;;;;;4996035;28;20182;-71
2023/09/30 08:57:05;;;;;;;;;;;23.90;99.90;;;;;;4995985;28;20188;-70
2023/09/30 08:59:32;;;;;;;;;;;23.70;99.90;;;;;;4995777;28;20176;-71
2023/09/30 09:02:03;;;;;;;;;;;23.60;99.90;;;;;;4995785;28;20218;-71
2023/09/30 09:04:31;;;;;;;;;;;23.60;99.90;;;;;;4995709;28;20152;-70
2023/09/30 09:06:57;;;;;;;;;;;23.50;99.90;;;;;;4995699;28;20172;-70
2023/09/30 09:09:24;;;;;;;;;;;23.50;99.90;;;;;;4995650;28;20188;-70
2023/09/30 09:11:51;;;;;;;;;;;23.40;99.90;;;;;;4995643;28;20221;-71
2023/09/30 09:14:18;;;;;;;;;;;23.40;99.90;;;;;;4996416;28;20156;-70
2023/09/30 09:16:55;;;;;;;;;;;23.30;99.90;;;;;;4977877;28;20518;-71
2023/09/30 09:19:21;;;;;;;;;;;23.30;99.90;;;;;;4995230;28;20741;-70
2023/09/30 09:21:58;;;;;;;;;;;23.20;99.90;;;;;;4995990;28;20162;-73
2023/09/30 09:24:35;;;;;;;;;;;23.20;99.90;;;;;;4994845;28;20233;-71
2023/09/30 09:27:11;;;;;;;;;;;23.20;99.90;;;;;;4995374;28;20172;-69
2023/09/30 09:29:39;;;;;;;;;;;23.20;99.90;;;;;;4995226;28;20311;-71
2023/09/30 09:32:09;;;;;;;;;;;23.20;99.90;;;;;;4995453;28;20160;-71
2023/09/30 09:34:36;;;;;;;;;;;23.10;99.90;;;;;;4995687;28;20221;-70
2023/09/30 09:37:15;;;;;;;;;;;23.00;99.90;;;;;;4994973;28;20213;-70
2023/09/30 09:39:56;;;;;;;;;;;23.00;99.90;;;;;;4994694;28;20153;-69
2023/09/30 09:42:26;;;;;;;;;;;22.90;99.90;;;;;;4978238;28;20515;-70
2023/09/30 09:44:56;;;;;;;;;;;22.90;99.90;;;;;;4995102;28;20160;-71
2023/09/30 09:47:24;;;;;;;;;;;22.80;99.90;;;;;;4995340;28;20673;-69
2023/09/30 09:49:51;;;;;;;;;;;22.70;99.90;;;;;;4995324;28;20206;-69
2023/09/30 09:52:19;;;;;;;;;;;22.80;99.90;;;;;;4995505;28;20165;-71
2023/09/30 09:54:48;;;;;;;;;;;22.80;99.90;;;;;;4995003;28;20179;-70
2023/09/30 09:57:17;;;;;;;;;;;22.90;99.90;;;;;;4978365;28;20173;-70
2023/09/30 09:59:47;;;;;;;;;;;22.90;99.90;;;;;;4994877;28;20269;-71
2023/09/30 10:02:14;;;;;;;;;;;22.80;99.90;;;;;;4977343;28;20250;-70
2023/09/30 10:04:41;;;;;;;;;;;;;;;;;;4994025;28;20165;-72
2023/09/30 10:07:10;;;;;;;;;;;22.60;99.90;;;;;;4977781;28;20174;-70
2023/09/30 10:09:37;;;;;;;;;;;22.40;99.90;;;;;;4977492;28;20209;-70
2023/09/30 10:12:05;;;;;;;;;;;22.40;99.90;;;;;;4995069;28;20263;-71
2023/09/30 10:14:32;;;;;;;;;;;22.20;99.90;;;;;;4995100;28;20185;-71
2023/09/30 10:16:59;;;;;;;;;;;22.00;99.90;;;;;;4994461;28;20193;-70
2023/09/30 10:19:27;;;;;;;;;;;21.90;99.90;;;;;;4994277;28;20229;-69
2023/09/30 10:22:12;;;;;;;;;;;21.80;99.90;;;;;;4994679;28;20157;-71
2023/09/30 10:24:39;;;;;;;;;;;21.70;99.90;;;;;;4994225;28;20675;-70
2023/09/30 10:27:24;;;;;;;;;;;21.60;99.90;;;;;;4977016;28;20210;-70
2023/09/30 10:30:13;;;;;;;;;;;21.50;99.90;;;;;;4994384;28;20295;-70
2023/09/30 10:32:49;;;;;;;;;;;21.40;99.90;;;;;;4994899;28;20164;-69
2023/09/30 10:35:36;;;;;;;;;;;21.30;99.90;;;;;;4994662;28;20156;-70
2023/09/30 10:38:21;;;;;;;;;;;21.30;99.90;;;;;;4980350;28;20172;-70
2023/09/30 10:40:48;;;;;;;;;;;21.20;99.90;;;;;;4994208;28;20214;-71
2023/09/30 10:43:35;;;;;;;;;;;21.10;99.90;;;;;;4994583;28;20170;-70
2023/09/30 10:46:05;;;;;;;;;;;21.00;99.90;;;;;;4994502;28;20552;-69
2023/09/30 10:48:34;;;;;;;;;;;20.90;99.90;;;;;;4994179;28;20218;-70
2023/09/30 10:51:14;;;;;;;;;;;20.90;99.90;;;;;;4994101;28;20340;-68
2023/09/30 10:53:45;;;;;;;;;;;20.80;99.90;;;;;;4977253;28;20205;-68
2023/09/30 10:56:12;;;;;;;;;;;20.70;99.90;;;;;;4994496;28;20253;-70
2023/09/30 10:59:04;;;;;;;;;;;20.70;99.90;;;;;;4994217;28;20240;-68
2023/09/30 11:01:34;;;;;;;;;;;20.60;99.90;;;;;;4990457;28;20189;-69
2023/09/30 11:04:04;;;;;;;;;;;20.50;99.90;;;;;;4994441;28;20171;-68
2023/09/30 11:06:31;;;;;;;;;;;20.40;99.90;;;;;;4993781;28;20496;-69
2023/09/30 11:08:59;;;;;;;;;;;20.40;99.90;;;;;;4993660;28;20139;-69
2023/09/30 11:11:53;;;;;;;;;;;20.30;99.90;;;;;;4993906;28;20239;-69
2023/09/30 11:14:24;;;;;;;;;;;20.40;99.90;;;;;;4990942;28;20189;-69
2023/09/30 11:16:52;;;;;;;;;;;20.30;99.90;;;;;;4993208;28;20141;-69
2023/09/30 11:19:22;;;;;;;;;;;20.30;99.90;;;;;;4993581;28;20161;-70
2023/09/30 11:21:50;;;;;;;;;;;20.20;99.90;;;;;;4993342;28;20149;-69
2023/09/30 11:24:17;;;;;;;;;;;20.10;99.90;;;;;;4993085;28;20240;-70
2023/09/30 11:26:45;;;;;;;;;;;20.00;99.90;;;;;;4975663;28;20166;-69
2023/09/30 11:29:13;;;;;;;;;;;20.00;99.90;;;;;;4993513;28;20648;-69
2023/09/30 11:31:40;;;;;;;;;;;20.00;99.90;;;;;;4993662;28;20633;-70
2023/09/30 11:34:07;;;;;;;;;;;19.90;99.90;;;;;;4993800;28;20158;-70
2023/09/30 11:36:35;;;;;;;;;;;19.80;99.90;;;;;;4993931;28;20629;-70
2023/09/30 11:39:09;;;;;;;;;;;19.80;99.90;;;;;;4993420;28;20172;-68
2023/09/30 11:41:41;;;;;;;;;;;19.80;99.90;;;;;;4993521;28;20150;-69
2023/09/30 11:44:10;;;;;;;;;;;19.80;99.90;;;;;;4993696;28;20219;-69
2023/09/30 11:46:52;;;;;;;;;;;19.70;99.90;;;;;;4993760;28;20518;-69
2023/09/30 11:49:31;;;;;;;;;;;19.70;99.90;;;;;;4992672;28;20253;-69
2023/09/30 11:51:59;;;;;;;;;;;19.60;99.90;;;;;;4993333;28;20158;-69
2023/09/30 11:54:40;;;;;;;;;;;19.50;99.90;;;;;;4993240;28;20194;-69
2023/09/30 11:57:15;;;;;;;;;;;19.50;99.90;;;;;;4976100;28;20178;-69
2023/09/30 11:59:48;;;;;;;;;;;19.40;99.90;;;;;;4977681;28;20155;-69
2023/09/30 12:02:17;;;;;;;;;;;19.40;99.90;;;;;;4993096;28;20164;-69
2023/09/30 12:04:44;;;;;;;;;;;19.40;99.90;;;;;;4993251;28;20567;-69
2023/09/30 12:07:11;;;;;;;;;;;19.40;99.90;;;;;;4993201;28;20163;-69
2023/09/30 12:09:39;;;;;;;;;;;19.40;99.90;;;;;;4976417;28;20249;-69
2023/09/30 12:12:09;;;;;;;;;;;19.30;99.90;;;;;;4992984;28;20213;-69
2023/09/30 12:14:36;;;;;;;;;;;19.20;99.90;;;;;;4993177;28;20697;-69
2023/09/30 12:17:03;;;;;;;;;;;19.20;99.90;;;;;;4993203;28;20257;-69
2023/09/30 12:19:30;;;;;;;;;;;19.10;99.90;;;;;;4975999;28;20212;-69
2023/09/30 12:21:56;;;;;;;;;;;19.10;99.90;;;;;;4993237;28;20629;-69
2023/09/30 12:24:24;;;;;;;;;;;19.10;99.90;;;;;;4993169;28;20194;-69
2023/09/30 12:26:54;;;;;;;;;;;19.10;99.90;;;;;;4990222;28;20265;-72
2023/09/30 12:29:22;;;;;;;;;;;19.10;99.90;;;;;;4981671;28;20192;-70
2023/09/30 12:31:50;;;;;;;;;;;19.00;99.90;;;;;;4985037;28;20163;-70
2023/09/30 12:34:17;;;;;;;;;;;19.00;99.90;;;;;;4976991;28;20560;-68
2023/09/30 12:36:44;;;;;;;;;;;19.00;99.90;;;;;;4976966;28;20188;-69
2023/09/30 12:39:11;;;;;;;;;;;19.00;99.90;;;;;;4978258;28;20165;-70
2023/09/30 12:41:40;;;;;;;;;;;18.90;99.90;;;;;;4983524;28;20150;-70
2023/09/30 12:44:07;;;;;;;;;;;18.80;99.90;;;;;;4983452;28;20162;-69
2023/09/30 12:46:34;;;;;;;;;;;18.80;99.90;;;;;;4977239;28;20221;-70
2023/09/30 12:49:04;;;;;;;;;;;18.70;99.90;;;;;;4983519;28;20152;-69
2023/09/30 12:51:31;;;;;;;;;;;18.70;99.90;;;;;;4985536;28;20181;-69
2023/09/30 12:53:59;;;;;;;;;;;18.70;99.90;;;;;;4985207;28;20153;-69
2023/09/30 12:56:25;;;;;;;;;;;18.60;99.90;;;;;;4978931;28;20658;-69
2023/09/30 12:58:53;;;;;;;;;;;18.50;99.90;;;;;;4985140;28;20241;-70
2023/09/30 13:01:21;;;;;;;;;;;18.60;99.90;;;;;;4985900;28;20213;-69
2023/09/30 13:03:48;;;;;;;;;;;18.60;99.90;;;;;;4986556;28;20629;-69
2023/09/30 13:06:18;;;;;;;;;;;18.60;99.90;;;;;;4984764;28;20177;-69
2023/09/30 13:08:45;;;;;;;;;;;18.50;99.90;;;;;;4995539;28;20145;-69
2023/09/30 13:11:13;;;;;;;;;;;18.40;99.90;;;;;;4995729;28;20238;-70
2023/09/30 13:13:40;;;;;;;;;;;18.40;99.90;;;;;;4994767;28;20625;-69
2023/09/30 13:16:11;;;;;;;;;;;18.40;99.90;;;;;;4995425;28;20523;-69
2023/09/30 13:18:37;;;;;;;;;;;18.30;99.90;;;;;;4978090;28;20166;-69
2023/09/30 13:21:05;;;;;;;;;;;18.30;99.90;;;;;;4996663;28;20566;-69
2023/09/30 13:23:33;;;;;;;;;;;18.20;99.90;;;;;;4986141;28;20185;-68
2023/09/30 13:25:59;;;;;;;;;;;18.20;99.90;;;;;;4980173;28;20179;-68
2023/09/30 13:28:27;;;;;;;;;;;18.10;99.90;;;;;;4995233;28;20173;-69
2023/09/30 13:30:54;;;;;;;;;;;18.00;99.90;;;;;;4995093;28;20206;-69
2023/09/30 13:33:21;;;;;;;;;;;18.00;99.90;;;;;;4977067;28;20168;-69
2023/09/30 13:35:48;;;;;;;;;;;18.00;99.90;;;;;;4994907;28;20186;-69
2023/09/30 13:38:16;;;;;;;;;;;18.00;99.90;;;;;;4993629;28;20250;-69
2023/09/30 13:40:42;;;;;;;;;;;17.90;99.90;;;;;;4976755;28;20176;-69
2023/09/30 13:43:09;;;;;;;;;;;17.90;99.90;;;;;;4975881;28;20165;-68
2023/09/30 13:45:36;;;;;;;;;;;17.90;99.90;;;;;;4975995;28;20192;-68
2023/09/30 13:48:04;;;;;;;;;;;18.00;99.90;;;;;;4975472;28;20615;-67
2023/09/30 13:50:31;;;;;;;;;;;18.00;99.90;;;;;;4975782;28;20223;-70
2023/09/30 13:53:00;;;;;;;;;;;17.90;99.90;;;;;;4958298;28;20512;-70
2023/09/30 13:55:27;;;;;;;;;;;17.90;99.90;;;;;;4975627;28;20489;-69
2023/09/30 13:57:54;;;;;;;;;;;17.80;99.90;;;;;;4975530;28;20151;-68
2023/09/30 14:00:21;;;;;;;;;;;17.70;99.90;;;;;;4975079;28;20243;-70
2023/09/30 14:02:48;;;;;;;;;;;17.70;99.90;;;;;;4975523;28;20153;-69
2023/09/30 14:05:14;;;;;;;;;;;17.60;99.90;;;;;;4975476;28;20514;-69
2023/09/30 14:07:41;;;;;;;;;;;17.60;99.90;;;;;;4975323;28;20155;-67
2023/09/30 14:10:10;;;;;;;;;;;17.60;99.90;;;;;;4975483;28;20187;-68
2023/09/30 14:12:37;;;;;;;;;;;17.60;99.90;;;;;;4975057;28;20175;-69
2023/09/30 14:15:05;;;;;;;;;;;17.50;99.90;;;;;;4975673;28;20168;-69
2023/09/30 14:17:32;;;;;;;;;;;17.50;99.90;;;;;;4975249;28;20179;-70
2023/09/30 14:19:58;;;;;;;;;;;17.40;99.90;;;;;;4975359;28;20171;-70
2023/09/30 14:22:26;;;;;;;;;;;17.40;99.90;;;;;;4975513;28;20154;-69
2023/09/30 14:24:52;;;;;;;;;;;17.40;99.90;;;;;;4974706;28;20222;-70
2023/09/30 14:27:21;;;;;;;;;;;17.30;99.90;;;;;;4975039;28;20159;-70
2023/09/30 14:29:48;;;;;;;;;;;17.20;99.90;;;;;;4974889;28;20199;-70
2023/09/30 14:32:15;;;;;;;;;;;17.20;99.90;;;;;;4974841;28;20210;-70